createdAt,value
2022-09-24T00:00:16.636Z,0
2022-09-24T00:03:42.101Z,0
2022-09-24T00:07:07.567Z,0
2022-09-24T00:10:32.997Z,0
2022-09-24T00:13:58.481Z,0
2022-09-24T00:17:23.876Z,0
2022-09-24T00:20:49.386Z,0
2022-09-24T00:24:14.806Z,0
2022-09-24T00:27:40.260Z,0
2022-09-24T00:31:05.843Z,0
2022-09-24T00:34:31.213Z,0
2022-09-24T00:37:56.710Z,0
2022-09-24T00:41:22.187Z,0
2022-09-24T00:44:47.666Z,0
2022-09-24T00:48:13.122Z,0
2022-09-24T00:51:38.555Z,0
2022-09-24T00:55:04.040Z,0
2022-09-24T00:58:30.378Z,0
2022-09-24T01:01:55.923Z,0
2022-09-24T01:05:21.450Z,0
2022-09-24T01:08:46.760Z,0
2022-09-24T01:12:12.201Z,0
2022-09-24T01:15:37.659Z,0
2022-09-24T01:19:03.188Z,0
2022-09-24T01:22:28.675Z,0
2022-09-24T01:25:54.106Z,0
2022-09-24T01:29:19.569Z,0
2022-09-24T01:32:44.992Z,0
2022-09-24T01:36:10.457Z,0
2022-09-24T01:39:35.929Z,0
2022-09-24T01:43:01.359Z,0
2022-09-24T01:46:26.949Z,0
2022-09-24T01:49:52.384Z,0
2022-09-24T01:53:17.814Z,0
2022-09-24T01:56:43.314Z,0
2022-09-24T02:00:08.719Z,0
2022-09-24T02:03:34.263Z,0
2022-09-24T02:06:59.637Z,0
2022-09-24T02:10:25.118Z,0
2022-09-24T02:13:50.597Z,0
2022-09-24T02:17:15.934Z,0
2022-09-24T02:20:41.440Z,0
2022-09-24T02:24:06.988Z,0
2022-09-24T02:27:32.407Z,0
2022-09-24T02:30:57.970Z,0
2022-09-24T02:34:23.348Z,0
2022-09-24T02:37:48.779Z,0
2022-09-24T02:41:14.237Z,0
2022-09-24T02:44:39.742Z,0
2022-09-24T02:48:05.169Z,0
2022-09-24T02:51:30.646Z,0
2022-09-24T02:54:56.125Z,0
2022-09-24T02:58:21.561Z,0
2022-09-24T03:01:47.199Z,0
2022-09-24T03:05:12.484Z,0
2022-09-24T03:08:37.886Z,0
2022-09-24T03:12:03.271Z,0
2022-09-24T03:15:28.733Z,0
2022-09-24T03:18:54.207Z,0
2022-09-24T03:22:19.657Z,0
2022-09-24T03:25:45.091Z,0
2022-09-24T03:29:10.557Z,0
2022-09-24T03:32:35.984Z,0
2022-09-24T03:36:01.489Z,0
2022-09-24T03:39:27.045Z,0
2022-09-24T03:42:52.429Z,0
2022-09-24T03:46:17.892Z,0
2022-09-24T03:49:43.340Z,0
2022-09-24T03:53:08.786Z,0
2022-09-24T03:56:34.358Z,0
2022-09-24T03:59:59.728Z,0
2022-09-24T04:03:25.176Z,0
2022-09-24T04:06:50.548Z,0
2022-09-24T04:10:16.027Z,0
2022-09-24T04:13:41.465Z,0
2022-09-24T04:17:06.907Z,0
2022-09-24T04:20:32.352Z,0
2022-09-24T04:23:57.848Z,0
2022-09-24T04:27:23.284Z,0
2022-09-24T04:30:48.838Z,0
2022-09-24T04:34:14.218Z,0
2022-09-24T04:37:39.634Z,0
2022-09-24T04:41:05.110Z,0
2022-09-24T04:44:30.521Z,0
2022-09-24T04:47:56.176Z,0
2022-09-24T04:51:21.516Z,0
2022-09-24T04:54:46.948Z,0
2022-09-24T04:58:13.153Z,0
2022-09-24T05:01:38.630Z,0
2022-09-24T05:05:03.954Z,0
2022-09-24T05:08:29.422Z,0
2022-09-24T05:11:54.912Z,0
2022-09-24T05:15:20.308Z,0
2022-09-24T05:18:45.725Z,0
2022-09-24T05:22:11.173Z,0
2022-09-24T05:25:36.578Z,0
2022-09-24T05:29:02.072Z,0
2022-09-24T05:32:27.473Z,0
2022-09-24T05:35:52.879Z,0
2022-09-24T05:39:18.378Z,0
2022-09-24T05:42:43.747Z,0
2022-09-24T05:46:09.267Z,0
2022-09-24T05:49:34.627Z,0
2022-09-24T05:53:00.014Z,0
2022-09-24T05:56:25.552Z,0
2022-09-24T05:59:50.853Z,0
2022-09-24T06:03:16.389Z,0
2022-09-24T06:06:41.760Z,0
2022-09-24T06:10:07.168Z,6
2022-09-24T06:13:32.624Z,6
2022-09-24T06:16:58.057Z,6
2022-09-24T06:20:23.485Z,6
2022-09-24T06:23:48.953Z,6
2022-09-24T06:27:14.389Z,6
2022-09-24T06:30:39.850Z,6
2022-09-24T06:34:05.283Z,6
2022-09-24T06:37:30.700Z,6
2022-09-24T06:40:56.139Z,6
2022-09-24T06:44:21.516Z,6
2022-09-24T06:47:46.957Z,6
2022-09-24T06:51:12.338Z,6
2022-09-24T06:54:37.813Z,6
2022-09-24T06:58:03.235Z,6
2022-09-24T07:01:28.669Z,6
2022-09-24T07:04:54.154Z,6
2022-09-24T07:08:19.506Z,11
2022-09-24T07:11:44.954Z,11
2022-09-24T07:15:10.317Z,11
2022-09-24T07:18:35.738Z,11
2022-09-24T07:22:01.172Z,17
2022-09-24T07:25:26.568Z,11
2022-09-24T07:28:51.975Z,11
2022-09-24T07:32:17.394Z,11
2022-09-24T07:35:42.831Z,11
2022-09-24T07:39:08.333Z,11
2022-09-24T07:42:33.726Z,11
2022-09-24T07:45:59.164Z,11
2022-09-24T07:49:24.553Z,11
2022-09-24T07:52:49.955Z,11
2022-09-24T07:56:16.128Z,11
2022-09-24T07:59:41.556Z,11
2022-09-24T08:03:07.011Z,11
2022-09-24T08:06:37.242Z,11
2022-09-24T08:09:57.865Z,11
2022-09-24T08:13:27.473Z,11
2022-09-24T08:16:48.767Z,11
2022-09-24T08:20:14.272Z,11
2022-09-24T08:23:39.738Z,11
2022-09-24T08:27:05.195Z,11
2022-09-24T08:30:30.676Z,11
2022-09-24T08:33:56.033Z,11
2022-09-24T08:37:21.467Z,11
2022-09-24T08:40:46.930Z,11
2022-09-24T08:44:12.351Z,11
2022-09-24T08:47:37.891Z,11
2022-09-24T08:51:03.212Z,11
2022-09-24T08:54:28.686Z,11
2022-09-24T08:57:54.109Z,11
2022-09-24T09:01:19.580Z,11
2022-09-24T09:04:44.953Z,11
2022-09-24T09:08:27.514Z,11
2022-09-24T09:11:35.873Z,11
2022-09-24T09:15:01.277Z,11
2022-09-24T09:18:26.687Z,11
2022-09-24T09:21:52.152Z,11
2022-09-24T09:25:17.576Z,11
2022-09-24T09:28:43.009Z,17
2022-09-24T09:32:08.450Z,17
2022-09-24T09:35:33.933Z,23
2022-09-24T09:38:59.408Z,28
2022-09-24T09:42:24.713Z,28
2022-09-24T09:45:50.078Z,28
2022-09-24T09:49:15.499Z,34
2022-09-24T09:52:40.993Z,39
2022-09-24T09:56:06.462Z,34
2022-09-24T09:59:31.896Z,34
2022-09-24T10:02:57.516Z,34
2022-09-24T10:06:22.863Z,28
2022-09-24T10:09:48.341Z,23
2022-09-24T10:13:13.776Z,34
2022-09-24T10:16:39.319Z,34
2022-09-24T10:20:04.671Z,17
2022-09-24T10:23:30.075Z,11
2022-09-24T10:26:55.524Z,34
2022-09-24T10:30:21.059Z,11
2022-09-24T10:33:46.379Z,11
2022-09-24T10:37:11.816Z,11
2022-09-24T10:40:37.297Z,39
2022-09-24T10:44:02.969Z,39
2022-09-24T10:47:28.407Z,23
2022-09-24T10:50:53.770Z,28
2022-09-24T10:54:19.265Z,34
2022-09-24T10:57:44.659Z,34
2022-09-24T11:01:10.126Z,45
2022-09-24T11:04:38.865Z,56
2022-09-24T11:08:01.110Z,56
2022-09-24T11:11:26.554Z,62
2022-09-24T11:14:51.960Z,51
2022-09-24T11:18:17.410Z,45
2022-09-24T11:21:42.895Z,45
2022-09-24T11:25:08.299Z,51
2022-09-24T11:28:33.713Z,45
2022-09-24T11:31:59.136Z,45
2022-09-24T11:35:24.570Z,45
2022-09-24T11:38:50.032Z,45
2022-09-24T11:42:15.467Z,45
2022-09-24T11:45:40.893Z,45
2022-09-24T11:49:06.321Z,11
2022-09-24T11:52:31.735Z,45
2022-09-24T11:55:57.257Z,45
2022-09-24T11:59:22.694Z,45
2022-09-24T12:02:48.238Z,45
2022-09-24T12:06:13.646Z,45
2022-09-24T12:09:39.119Z,45
2022-09-24T12:13:04.642Z,39
2022-09-24T12:16:30.157Z,39
2022-09-24T12:19:55.495Z,28
2022-09-24T12:23:20.918Z,45
2022-09-24T12:26:46.424Z,34
2022-09-24T12:30:11.903Z,45
2022-09-24T12:33:37.311Z,39
2022-09-24T12:37:02.720Z,39
2022-09-24T12:40:28.233Z,34
2022-09-24T12:43:54.187Z,17
2022-09-24T12:47:19.648Z,28
2022-09-24T12:50:45.070Z,34
2022-09-24T12:54:10.608Z,34
2022-09-24T12:57:36.045Z,34
2022-09-24T13:01:01.473Z,28
2022-09-24T13:04:27.102Z,39
2022-09-24T13:07:52.872Z,17
2022-09-24T13:11:18.321Z,39
2022-09-24T13:14:43.778Z,39
2022-09-24T13:18:09.236Z,34
2022-09-24T13:21:34.748Z,28
2022-09-24T13:25:00.200Z,34
2022-09-24T13:28:29.204Z,34
2022-09-24T13:31:51.251Z,34
2022-09-24T13:35:21.087Z,28
2022-09-24T13:38:42.155Z,28
2022-09-24T13:42:07.579Z,28
2022-09-24T13:45:33.053Z,28
2022-09-24T13:48:58.529Z,23
2022-09-24T13:52:23.962Z,23
2022-09-24T13:55:49.529Z,23
2022-09-24T13:59:14.902Z,23
2022-09-24T14:02:40.404Z,23
2022-09-24T14:06:05.698Z,23
2022-09-24T14:09:31.130Z,23
2022-09-24T14:12:56.666Z,17
2022-09-24T14:16:22.130Z,11
2022-09-24T14:19:47.452Z,11
2022-09-24T14:23:12.842Z,17
2022-09-24T14:26:38.315Z,17
2022-09-24T15:06:07.249Z,6
2022-09-24T15:09:32.675Z,11
2022-09-24T15:12:57.982Z,17
2022-09-24T15:16:23.311Z,6
2022-09-24T15:19:48.552Z,11
2022-09-24T15:23:13.865Z,6
2022-09-24T15:26:39.176Z,11
2022-09-24T15:30:04.547Z,6
2022-09-24T15:33:29.882Z,6
2022-09-24T15:36:55.233Z,0
2022-09-24T15:40:20.760Z,6
2022-09-24T15:43:46.112Z,0
2022-09-24T15:47:11.554Z,0
2022-09-24T15:50:36.993Z,0
2022-09-24T15:54:02.489Z,0
2022-09-24T15:57:28.089Z,0
2022-09-24T16:00:53.412Z,0
2022-09-24T16:04:18.864Z,6
2022-09-24T16:07:44.321Z,6
2022-09-24T16:11:09.723Z,0
2022-09-24T16:14:35.186Z,0
2022-09-24T16:18:00.674Z,6
2022-09-24T16:21:26.113Z,0
2022-09-24T16:24:51.607Z,0
2022-09-24T16:28:17.084Z,0
2022-09-24T16:31:42.702Z,0
2022-09-24T16:35:08.106Z,0
2022-09-24T16:38:35.211Z,0
2022-09-24T16:42:00.696Z,0
2022-09-24T16:45:26.122Z,0
2022-09-24T16:48:51.541Z,0
2022-09-24T16:52:16.950Z,0
2022-09-24T16:55:42.364Z,0
2022-09-24T16:59:07.760Z,0
2022-09-24T17:02:33.335Z,0
2022-09-24T17:05:58.877Z,0
2022-09-24T17:09:24.183Z,0
2022-09-24T17:12:49.698Z,0
2022-09-24T17:16:15.205Z,0
2022-09-24T17:19:40.549Z,0
2022-09-24T17:23:05.952Z,0
2022-09-24T17:26:31.362Z,0
2022-09-24T17:29:56.765Z,0
2022-09-24T17:33:42.113Z,0
2022-09-24T17:36:47.620Z,0
2022-09-24T17:40:13.161Z,0
2022-09-24T17:43:38.514Z,0
2022-09-24T17:47:04.047Z,0
2022-09-24T17:50:29.398Z,0
2022-09-24T17:53:54.868Z,0
2022-09-24T17:57:20.557Z,0
2022-09-24T18:00:45.908Z,0
2022-09-24T18:04:11.397Z,0
2022-09-24T18:07:36.816Z,0
2022-09-24T18:11:02.319Z,0
2022-09-24T18:14:27.818Z,0
2022-09-24T18:17:53.227Z,0
2022-09-24T18:21:18.676Z,0
2022-09-24T18:24:44.149Z,0
2022-09-24T18:28:09.596Z,0
2022-09-24T18:31:35.286Z,0
2022-09-24T18:35:00.913Z,0
2022-09-24T18:38:26.602Z,0
2022-09-24T18:41:52.098Z,0
2022-09-24T18:45:17.517Z,0
2022-09-24T18:48:43.003Z,0
2022-09-24T18:52:10.116Z,0
2022-09-24T18:55:36.241Z,0
2022-09-24T18:59:04.854Z,0
2022-09-24T19:02:27.198Z,0
2022-09-24T19:05:52.649Z,0
2022-09-24T19:09:18.051Z,0
2022-09-24T19:12:43.488Z,0
2022-09-24T19:16:09.129Z,0
2022-09-24T19:19:34.526Z,0
2022-09-24T19:23:00.009Z,0
2022-09-24T19:26:25.483Z,0
2022-09-24T19:29:50.947Z,0
2022-09-24T19:33:16.439Z,0
2022-09-24T19:36:43.256Z,0
2022-09-24T19:40:07.507Z,0
2022-09-24T19:43:32.962Z,0
2022-09-24T19:46:58.416Z,0
2022-09-24T19:50:23.873Z,0
2022-09-24T19:53:49.301Z,0
2022-09-24T19:57:14.813Z,0
2022-09-24T20:00:40.273Z,0
2022-09-24T20:04:06.775Z,0
2022-09-24T20:07:32.075Z,0
2022-09-24T20:10:57.513Z,0
2022-09-24T20:14:22.957Z,0
2022-09-24T20:17:48.384Z,0
2022-09-24T20:21:13.860Z,0
2022-09-24T20:24:39.307Z,0
2022-09-24T20:28:04.786Z,0
2022-09-24T20:31:30.438Z,0
2022-09-24T20:34:55.732Z,0
2022-09-24T20:38:21.225Z,0
2022-09-24T20:41:46.667Z,0
2022-09-24T20:45:12.142Z,0
2022-09-24T20:48:37.665Z,0
2022-09-24T20:52:02.989Z,0
2022-09-24T20:55:28.459Z,0
2022-09-24T20:58:53.919Z,0
2022-09-24T21:02:19.439Z,0
2022-09-24T21:05:44.883Z,0
2022-09-24T21:09:10.333Z,0
2022-09-24T21:12:35.800Z,0
2022-09-24T21:16:01.297Z,0
2022-09-24T21:19:26.749Z,0
2022-09-24T21:22:52.183Z,0
2022-09-24T21:26:17.611Z,0
2022-09-24T21:29:43.068Z,0
2022-09-24T21:33:08.539Z,0
2022-09-24T21:36:33.980Z,0
2022-09-24T21:39:59.509Z,0
2022-09-24T21:43:24.949Z,0
2022-09-24T21:46:50.396Z,0
2022-09-24T21:50:15.864Z,0
2022-09-24T21:53:41.317Z,0
2022-09-24T21:57:06.847Z,0
2022-09-24T22:00:32.255Z,0
2022-09-24T22:03:57.713Z,0
2022-09-24T22:07:23.221Z,0
2022-09-24T22:10:48.687Z,0
2022-09-24T22:14:14.204Z,0
2022-09-24T22:17:39.620Z,0
2022-09-24T22:21:05.124Z,0
2022-09-24T22:24:30.562Z,0
2022-09-24T22:27:56.032Z,0
2022-09-24T22:31:21.557Z,0
2022-09-24T22:34:46.907Z,0
2022-09-24T22:38:12.419Z,0
2022-09-24T22:41:37.844Z,0
2022-09-24T22:45:03.287Z,0
2022-09-24T22:48:28.783Z,0
2022-09-24T22:51:54.207Z,0
2022-09-24T22:55:19.703Z,0
2022-09-24T22:58:45.138Z,0
2022-09-24T23:02:13.122Z,0
2022-09-24T23:05:36.147Z,0
2022-09-24T23:09:01.562Z,0
2022-09-24T23:12:26.969Z,0
2022-09-24T23:15:52.413Z,0
2022-09-24T23:19:17.820Z,0
2022-09-24T23:22:43.291Z,0
2022-09-24T23:26:11.043Z,0
2022-09-24T23:29:34.294Z,0
2022-09-24T23:32:59.728Z,0
2022-09-24T23:36:25.199Z,0
2022-09-24T23:39:50.784Z,0
2022-09-24T23:43:16.149Z,0
2022-09-24T23:46:41.586Z,0
2022-09-24T23:50:07.143Z,0
2022-09-24T23:53:32.634Z,0
2022-09-24T23:56:58.590Z,0
